sensor_id;sensor_type;location;lat;lon;timestamp;P1;durP1;ratioP1;P2;durP2;ratioP2
82777;SDS011;72510;45.128;20.734;2024-01-30T00:03:07;14.63;;;7.05;;
82777;SDS011;72510;45.128;20.734;2024-01-30T00:13:08;15.77;;;7.55;;
82777;SDS011;72510;45.128;20.734;2024-01-30T00:23:10;17.52;;;9.05;;
82777;SDS011;72510;45.128;20.734;2024-01-30T00:33:11;21.13;;;9.60;;
82777;SDS011;72510;45.128;20.734;2024-01-30T00:43:13;21.20;;;9.52;;
82777;SDS011;72510;45.128;20.734;2024-01-30T00:53:15;49.78;;;21.33;;
82777;SDS011;72510;45.128;20.734;2024-01-30T01:03:16;31.75;;;13.63;;
82777;SDS011;72510;45.128;20.734;2024-01-30T01:13:19;28.98;;;13.25;;
82777;SDS011;72510;45.128;20.734;2024-01-30T01:23:23;23.67;;;10.32;;
82777;SDS011;72510;45.128;20.734;2024-01-30T01:33:24;18.98;;;9.05;;
82777;SDS011;72510;45.128;20.734;2024-01-30T01:43:26;18.20;;;8.35;;
82777;SDS011;72510;45.128;20.734;2024-01-30T01:53:29;21.45;;;9.20;;
82777;SDS011;72510;45.128;20.734;2024-01-30T02:03:31;19.33;;;9.40;;
82777;SDS011;72510;45.128;20.734;2024-01-30T02:13:33;16.95;;;8.13;;
82777;SDS011;72510;45.128;20.734;2024-01-30T02:23:35;19.30;;;8.40;;
82777;SDS011;72510;45.128;20.734;2024-01-30T02:33:37;16.08;;;7.70;;
82777;SDS011;72510;45.128;20.734;2024-01-30T02:43:39;14.43;;;7.90;;
82777;SDS011;72510;45.128;20.734;2024-01-30T02:53:41;13.25;;;7.03;;
82777;SDS011;72510;45.128;20.734;2024-01-30T03:03:43;19.23;;;8.20;;
82777;SDS011;72510;45.128;20.734;2024-01-30T03:13:45;19.30;;;7.18;;
82777;SDS011;72510;45.128;20.734;2024-01-30T03:23:46;12.55;;;6.88;;
82777;SDS011;72510;45.128;20.734;2024-01-30T03:33:49;16.45;;;8.23;;
82777;SDS011;72510;45.128;20.734;2024-01-30T03:43:50;16.65;;;7.57;;
82777;SDS011;72510;45.128;20.734;2024-01-30T03:53:51;26.92;;;14.00;;
82777;SDS011;72510;45.128;20.734;2024-01-30T04:03:53;69.18;;;23.30;;
82777;SDS011;72510;45.128;20.734;2024-01-30T04:13:54;85.80;;;26.65;;
82777;SDS011;72510;45.128;20.734;2024-01-30T04:23:55;55.90;;;23.52;;
82777;SDS011;72510;45.128;20.734;2024-01-30T04:33:56;25.60;;;12.60;;
82777;SDS011;72510;45.128;20.734;2024-01-30T04:43:57;14.18;;;7.68;;
82777;SDS011;72510;45.128;20.734;2024-01-30T04:53:59;16.80;;;8.18;;
82777;SDS011;72510;45.128;20.734;2024-01-30T05:04:00;22.42;;;10.35;;
82777;SDS011;72510;45.128;20.734;2024-01-30T05:14:03;13.82;;;6.43;;
82777;SDS011;72510;45.128;20.734;2024-01-30T05:24:04;10.50;;;5.78;;
82777;SDS011;72510;45.128;20.734;2024-01-30T05:34:06;9.95;;;4.65;;
82777;SDS011;72510;45.128;20.734;2024-01-30T05:44:07;14.23;;;5.45;;
82777;SDS011;72510;45.128;20.734;2024-01-30T05:54:08;9.57;;;5.25;;
82777;SDS011;72510;45.128;20.734;2024-01-30T06:04:10;14.00;;;5.82;;
82777;SDS011;72510;45.128;20.734;2024-01-30T06:14:14;33.72;;;14.32;;
82777;SDS011;72510;45.128;20.734;2024-01-30T06:24:16;16.23;;;7.53;;
82777;SDS011;72510;45.128;20.734;2024-01-30T06:34:17;11.48;;;6.00;;
82777;SDS011;72510;45.128;20.734;2024-01-30T06:44:19;13.25;;;7.15;;
82777;SDS011;72510;45.128;20.734;2024-01-30T06:54:23;32.63;;;14.25;;
82777;SDS011;72510;45.128;20.734;2024-01-30T07:04:25;36.95;;;17.38;;
82777;SDS011;72510;45.128;20.734;2024-01-30T07:14:26;22.95;;;9.73;;
82777;SDS011;72510;45.128;20.734;2024-01-30T07:24:27;46.22;;;21.30;;
82777;SDS011;72510;45.128;20.734;2024-01-30T07:34:28;30.92;;;15.75;;
82777;SDS011;72510;45.128;20.734;2024-01-30T07:44:32;43.20;;;22.40;;
82777;SDS011;72510;45.128;20.734;2024-01-30T07:54:39;49.38;;;23.75;;
82777;SDS011;72510;45.128;20.734;2024-01-30T08:04:41;19.65;;;10.35;;
82777;SDS011;72510;45.128;20.734;2024-01-30T08:14:43;18.98;;;10.32;;
82777;SDS011;72510;45.128;20.734;2024-01-30T08:24:45;17.60;;;9.15;;
82777;SDS011;72510;45.128;20.734;2024-01-30T08:44:50;13.85;;;8.35;;
82777;SDS011;72510;45.128;20.734;2024-01-30T08:54:53;11.63;;;7.13;;
82777;SDS011;72510;45.128;20.734;2024-01-30T09:04:57;18.33;;;10.25;;
82777;SDS011;72510;45.128;20.734;2024-01-30T09:14:58;29.17;;;12.95;;
82777;SDS011;72510;45.128;20.734;2024-01-30T09:25:00;15.77;;;9.30;;
82777;SDS011;72510;45.128;20.734;2024-01-30T09:35:02;15.23;;;8.35;;
82777;SDS011;72510;45.128;20.734;2024-01-30T09:45:04;10.70;;;6.10;;
82777;SDS011;72510;45.128;20.734;2024-01-30T09:55:07;5.38;;;4.13;;
82777;SDS011;72510;45.128;20.734;2024-01-30T10:05:08;13.75;;;6.80;;
82777;SDS011;72510;45.128;20.734;2024-01-30T10:15:10;12.88;;;6.90;;
82777;SDS011;72510;45.128;20.734;2024-01-30T10:25:15;10.88;;;6.88;;
82777;SDS011;72510;45.128;20.734;2024-01-30T10:35:17;16.85;;;8.77;;
82777;SDS011;72510;45.128;20.734;2024-01-30T10:45:18;12.30;;;6.53;;
82777;SDS011;72510;45.128;20.734;2024-01-30T10:55:21;11.27;;;6.82;;
82777;SDS011;72510;45.128;20.734;2024-01-30T11:05:24;30.45;;;13.43;;
82777;SDS011;72510;45.128;20.734;2024-01-30T11:15:28;24.42;;;12.07;;
82777;SDS011;72510;45.128;20.734;2024-01-30T11:25:32;8.85;;;4.88;;
82777;SDS011;72510;45.128;20.734;2024-01-30T11:35:36;14.23;;;6.35;;
82777;SDS011;72510;45.128;20.734;2024-01-30T11:45:41;19.83;;;8.30;;
82777;SDS011;72510;45.128;20.734;2024-01-30T11:55:51;16.35;;;8.93;;
82777;SDS011;72510;45.128;20.734;2024-01-30T12:05:56;15.63;;;8.35;;
82777;SDS011;72510;45.128;20.734;2024-01-30T12:16:02;12.10;;;8.02;;
82777;SDS011;72510;45.128;20.734;2024-01-30T12:26:04;16.77;;;9.85;;
82777;SDS011;72510;45.128;20.734;2024-01-30T12:36:07;13.80;;;7.43;;
82777;SDS011;72510;45.128;20.734;2024-01-30T12:46:09;13.05;;;7.78;;
82777;SDS011;72510;45.128;20.734;2024-01-30T12:56:13;11.52;;;6.78;;
82777;SDS011;72510;45.128;20.734;2024-01-30T13:06:18;28.52;;;15.55;;
82777;SDS011;72510;45.128;20.734;2024-01-30T13:26:21;13.93;;;11.27;;
82777;SDS011;72510;45.128;20.734;2024-01-30T13:36:25;10.18;;;6.32;;
82777;SDS011;72510;45.128;20.734;2024-01-30T13:46:27;9.27;;;6.82;;
82777;SDS011;72510;45.128;20.734;2024-01-30T13:56:28;105.70;;;36.72;;
82777;SDS011;72510;45.128;20.734;2024-01-30T14:06:30;12.65;;;7.88;;
82777;SDS011;72510;45.128;20.734;2024-01-30T14:16:32;34.92;;;18.85;;
82777;SDS011;72510;45.128;20.734;2024-01-30T14:26:33;15.02;;;8.55;;
82777;SDS011;72510;45.128;20.734;2024-01-30T14:36:34;24.65;;;12.18;;
82777;SDS011;72510;45.128;20.734;2024-01-30T14:46:36;22.92;;;12.98;;
82777;SDS011;72510;45.128;20.734;2024-01-30T14:56:37;32.90;;;16.52;;
82777;SDS011;72510;45.128;20.734;2024-01-30T15:16:46;95.25;;;42.35;;
82777;SDS011;72510;45.128;20.734;2024-01-30T15:26:47;109.50;;;46.28;;
82777;SDS011;72510;45.128;20.734;2024-01-30T15:36:48;33.65;;;18.08;;
82777;SDS011;72510;45.128;20.734;2024-01-30T15:46:50;49.63;;;19.25;;
82777;SDS011;72510;45.128;20.734;2024-01-30T15:56:51;13.13;;;8.38;;
82777;SDS011;72510;45.128;20.734;2024-01-30T16:06:53;41.35;;;20.73;;
82777;SDS011;72510;45.128;20.734;2024-01-30T16:16:58;75.97;;;28.27;;
82777;SDS011;72510;45.128;20.734;2024-01-30T16:26:59;41.03;;;18.98;;
82777;SDS011;72510;45.128;20.734;2024-01-30T16:37:01;13.50;;;7.00;;
82777;SDS011;72510;45.128;20.734;2024-01-30T16:47:02;42.30;;;18.17;;
82777;SDS011;72510;45.128;20.734;2024-01-30T16:57:04;78.65;;;31.27;;
82777;SDS011;72510;45.128;20.734;2024-01-30T17:07:06;108.35;;;47.22;;
82777;SDS011;72510;45.128;20.734;2024-01-30T17:17:07;121.82;;;53.78;;
82777;SDS011;72510;45.128;20.734;2024-01-30T17:27:13;68.47;;;26.73;;
82777;SDS011;72510;45.128;20.734;2024-01-30T17:37:14;124.50;;;51.80;;
82777;SDS011;72510;45.128;20.734;2024-01-30T17:47:17;153.05;;;53.00;;
82777;SDS011;72510;45.128;20.734;2024-01-30T17:57:18;126.40;;;42.17;;
82777;SDS011;72510;45.128;20.734;2024-01-30T18:07:20;121.93;;;44.50;;
82777;SDS011;72510;45.128;20.734;2024-01-30T18:17:21;134.25;;;42.13;;
82777;SDS011;72510;45.128;20.734;2024-01-30T18:27:24;56.05;;;20.33;;
82777;SDS011;72510;45.128;20.734;2024-01-30T18:37:27;40.88;;;13.93;;
82777;SDS011;72510;45.128;20.734;2024-01-30T18:47:29;17.42;;;7.75;;
82777;SDS011;72510;45.128;20.734;2024-01-30T18:57:30;15.32;;;6.47;;
82777;SDS011;72510;45.128;20.734;2024-01-30T19:07:32;12.80;;;7.35;;
82777;SDS011;72510;45.128;20.734;2024-01-30T19:17:34;13.30;;;6.40;;
82777;SDS011;72510;45.128;20.734;2024-01-30T19:27:35;105.05;;;39.85;;
82777;SDS011;72510;45.128;20.734;2024-01-30T19:37:37;75.65;;;30.85;;
82777;SDS011;72510;45.128;20.734;2024-01-30T19:47:38;17.98;;;9.52;;
82777;SDS011;72510;45.128;20.734;2024-01-30T19:57:40;127.55;;;48.40;;
82777;SDS011;72510;45.128;20.734;2024-01-30T20:07:42;53.30;;;23.30;;
82777;SDS011;72510;45.128;20.734;2024-01-30T20:17:47;66.15;;;26.27;;
82777;SDS011;72510;45.128;20.734;2024-01-30T20:27:50;68.72;;;26.23;;
82777;SDS011;72510;45.128;20.734;2024-01-30T20:37:53;46.53;;;19.98;;
82777;SDS011;72510;45.128;20.734;2024-01-30T20:47:55;19.17;;;8.45;;
82777;SDS011;72510;45.128;20.734;2024-01-30T20:57:56;18.05;;;10.75;;
82777;SDS011;72510;45.128;20.734;2024-01-30T21:07:58;130.25;;;43.15;;
82777;SDS011;72510;45.128;20.734;2024-01-30T21:18:02;58.88;;;25.98;;
82777;SDS011;72510;45.128;20.734;2024-01-30T21:28:07;15.35;;;8.05;;
82777;SDS011;72510;45.128;20.734;2024-01-30T21:38:10;15.15;;;8.02;;
82777;SDS011;72510;45.128;20.734;2024-01-30T21:48:12;28.10;;;10.93;;
82777;SDS011;72510;45.128;20.734;2024-01-30T21:58:15;105.45;;;50.05;;
82777;SDS011;72510;45.128;20.734;2024-01-30T22:08:16;119.78;;;48.38;;
82777;SDS011;72510;45.128;20.734;2024-01-30T22:18:18;36.08;;;17.25;;
82777;SDS011;72510;45.128;20.734;2024-01-30T22:28:19;41.65;;;19.20;;
82777;SDS011;72510;45.128;20.734;2024-01-30T22:38:21;95.60;;;34.55;;
82777;SDS011;72510;45.128;20.734;2024-01-30T22:48:22;93.32;;;38.83;;
82777;SDS011;72510;45.128;20.734;2024-01-30T22:58:29;43.53;;;23.20;;
82777;SDS011;72510;45.128;20.734;2024-01-30T23:08:30;42.17;;;20.30;;
82777;SDS011;72510;45.128;20.734;2024-01-30T23:18:35;45.47;;;24.02;;
82777;SDS011;72510;45.128;20.734;2024-01-30T23:28:36;20.33;;;9.40;;
82777;SDS011;72510;45.128;20.734;2024-01-30T23:38:38;17.80;;;9.55;;
82777;SDS011;72510;45.128;20.734;2024-01-30T23:48:39;13.63;;;7.72;;
82777;SDS011;72510;45.128;20.734;2024-01-30T23:58:42;13.27;;;7.63;;
